Time;durP1;ratioP1;P1;durP2;ratioP2;P2;SDS_P1;SDS_P2;PMS_P1;PMS_P2;Temp;Humidity;BMP_temperature;BMP_pressure;BME280_temperature;BME280_humidity;BME280_pressure;Samples;Min_cycle;Max_cycle;Signal;HPM_P1;HPM_P2
2023/05/30 00:01:23;;;;;;;1.70;1.60;;;22.10;65.90;;;;;;5086406;28;44219;-70
2023/05/30 00:03:51;;;;;;;1.60;1.60;;;22.00;66.00;;;;;;5087924;27;44208;-70
2023/05/30 00:06:20;;;;;;;1.60;1.60;;;22.00;66.40;;;;;;5088127;27;43842;-70
2023/05/30 00:08:48;;;;;;;1.60;1.60;;;21.90;66.30;;;;;;5087526;28;43343;-70
2023/05/30 00:11:18;;;;;;;1.50;1.50;;;21.90;66.40;;;;;;5087498;28;43486;-70
2023/05/30 00:13:48;;;;;;;1.70;1.60;;;21.90;66.50;;;;;;5086040;28;43581;-70
2023/05/30 00:16:19;;;;;;;1.80;1.80;;;21.80;66.60;;;;;;5087256;27;44028;-70
2023/05/30 00:18:47;;;;;;;1.80;1.80;;;21.80;66.80;;;;;;5089389;27;43723;-70
2023/05/30 00:21:17;;;;;;;1.50;1.50;;;21.80;66.80;;;;;;5084553;28;43452;-70
2023/05/30 00:23:45;;;;;;;1.63;1.60;;;21.80;66.90;;;;;;5085955;28;43994;-70
2023/05/30 00:26:13;;;;;;;1.63;1.63;;;21.70;66.80;;;;;;5085173;28;46146;-70
2023/05/30 00:28:50;;;;;;;1.60;1.60;;;21.70;66.80;;;;;;5086019;28;43347;-70
2023/05/30 00:31:18;;;;;;;1.70;1.70;;;21.70;67.00;;;;;;5087527;27;43391;-70
2023/05/30 00:33:46;;;;;;;1.77;1.70;;;21.80;66.90;;;;;;5086088;28;43823;-75
2023/05/30 00:36:17;;;;;;;1.50;1.50;;;21.90;66.70;;;;;;5087009;27;43851;-70
2023/05/30 00:38:45;;;;;;;1.50;1.50;;;21.90;66.10;;;;;;5086814;27;43378;-70
2023/05/30 00:41:13;;;;;;;1.80;1.80;;;22.00;65.90;;;;;;5087085;27;43377;-70
2023/05/30 00:43:41;;;;;;;1.70;1.70;;;22.00;66.00;;;;;;5085726;28;43458;-70
2023/05/30 00:46:11;;;;;;;1.70;1.70;;;22.00;66.10;;;;;;5085996;28;45628;-70
2023/05/30 00:48:40;;;;;;;1.80;1.80;;;21.90;66.20;;;;;;5086715;28;43956;-71
2023/05/30 00:51:10;;;;;;;1.67;1.67;;;21.90;66.50;;;;;;5079068;28;43438;-70
2023/05/30 00:53:38;;;;;;;1.80;1.80;;;21.90;66.50;;;;;;5085934;27;43761;-70
2023/05/30 00:56:07;;;;;;;1.60;1.60;;;21.80;66.60;;;;;;5086276;27;43986;-71
2023/05/30 00:58:35;;;;;;;1.73;1.73;;;21.80;66.60;;;;;;5084879;28;43456;-70
2023/05/30 01:01:03;;;;;;;1.70;1.70;;;21.80;66.70;;;;;;5086228;28;43491;-69
2023/05/30 01:03:33;;;;;;;1.77;1.77;;;21.80;66.90;;;;;;5100129;27;43603;-71
2023/05/30 01:06:03;;;;;;;1.60;1.60;;;21.70;66.80;;;;;;5112917;27;45888;-69
2023/05/30 01:08:32;;;;;;;1.50;1.50;;;21.70;66.90;;;;;;5102035;28;44987;-69
2023/05/30 01:11:04;;;;;;;1.70;1.70;;;21.70;66.90;;;;;;5102827;27;43385;-71
2023/05/30 01:13:40;;;;;;;1.70;1.70;;;21.70;67.00;;;;;;5105107;27;43478;-69
2023/05/30 01:16:09;;;;;;;1.70;1.70;;;21.70;67.00;;;;;;5102568;27;45308;-68
2023/05/30 01:18:40;;;;;;;1.40;1.40;;;21.70;67.00;;;;;;5102601;27;43725;-68
2023/05/30 01:21:10;;;;;;;1.67;1.67;;;21.70;67.00;;;;;;5098037;28;43485;-70
2023/05/30 01:23:49;;;;;;;1.70;1.70;;;21.70;66.90;;;;;;5103791;27;43406;-69
2023/05/30 01:26:27;;;;;;;1.43;1.43;;;21.70;67.10;;;;;;5100900;27;45655;-69
2023/05/30 01:28:58;;;;;;;1.63;1.63;;;21.70;66.90;;;;;;5102999;27;43506;-69
2023/05/30 01:31:27;;;;;;;1.47;1.47;;;21.80;66.60;;;;;;5103460;27;43420;-70
2023/05/30 01:33:55;;;;;;;1.63;1.63;;;21.90;66.10;;;;;;5107924;27;43938;-69
2023/05/30 01:36:23;;;;;;;1.77;1.77;;;22.10;65.90;;;;;;5106340;28;43770;-69
2023/05/30 01:38:51;;;;;;;1.70;1.70;;;22.10;65.60;;;;;;5104455;28;44763;-72
2023/05/30 01:41:22;;;;;;;1.50;1.50;;;22.10;65.90;;;;;;5105100;28;43435;-70
2023/05/30 01:43:53;;;;;;;1.60;1.60;;;22.00;66.00;;;;;;5104074;28;43527;-70
2023/05/30 01:46:27;;;;;;;1.67;1.67;;;21.90;66.20;;;;;;5103971;28;45702;-72
2023/05/30 01:48:59;;;;;;;1.83;1.80;;;21.90;66.40;;;;;;5106505;27;43475;-69
2023/05/30 01:51:29;;;;;;;1.60;1.60;;;21.90;66.40;;;;;;5104748;28;43426;-70
2023/05/30 01:53:59;;;;;;;1.70;1.70;;;21.80;66.50;;;;;;5106091;28;43412;-68
2023/05/30 01:56:27;;;;;;;1.60;1.60;;;21.80;66.50;;;;;;5104141;28;45813;-70
2023/05/30 01:58:55;;;;;;;1.60;1.60;;;21.80;66.80;;;;;;5118148;27;45021;-70
2023/05/30 02:01:27;;;;;;;1.50;1.50;;;21.70;66.70;;;;;;5104139;27;43481;-70
2023/05/30 02:03:56;;;;;;;1.40;1.40;;;21.70;66.80;;;;;;5105390;28;43459;-70
2023/05/30 02:06:23;;;;;;;1.50;1.50;;;21.70;66.80;;;;;;5105645;28;43727;-70
2023/05/30 02:08:52;;;;;;;1.60;1.60;;;21.70;66.90;;;;;;5100470;28;44361;-69
2023/05/30 02:11:20;;;;;;;1.50;1.50;;;21.70;67.00;;;;;;5105378;27;43448;-69
2023/05/30 02:13:48;;;;;;;1.70;1.70;;;21.70;67.00;;;;;;5106180;27;43412;-69
2023/05/30 02:16:17;;;;;;;1.60;1.60;;;21.70;67.00;;;;;;5104776;28;45848;-69
2023/05/30 02:18:46;;;;;;;1.70;1.70;;;21.60;66.80;;;;;;5105372;27;43449;-69
2023/05/30 02:21:14;;;;;;;1.50;1.50;;;21.60;67.00;;;;;;5101658;28;43499;-69
2023/05/30 02:23:43;;;;;;;1.60;1.60;;;21.70;67.00;;;;;;5104200;28;43445;-69
2023/05/30 02:26:11;;;;;;;1.60;1.60;;;21.70;66.70;;;;;;5105058;27;43597;-69
2023/05/30 02:28:39;;;;;;;1.40;1.40;;;21.90;66.50;;;;;;5104325;28;43669;-69
2023/05/30 02:31:07;;;;;;;1.70;1.70;;;22.00;66.00;;;;;;5104287;27;43925;-69
2023/05/30 02:33:35;;;;;;;1.33;1.33;;;22.00;65.70;;;;;;5100972;28;43481;-70
2023/05/30 02:36:05;;;;;;;1.60;1.60;;;22.00;65.70;;;;;;5096054;28;43916;-69
2023/05/30 02:38:33;;;;;;;1.80;1.80;;;22.00;65.90;;;;;;5103745;27;43428;-70
2023/05/30 02:41:01;;;;;;;1.80;1.80;;;22.00;66.00;;;;;;5103048;28;43456;-70
2023/05/30 02:43:33;;;;;;;1.50;1.50;;;21.90;66.30;;;;;;5103649;28;43526;-69
2023/05/30 02:46:04;;;;;;;1.40;1.40;;;21.90;66.30;;;;;;5100702;27;45683;-70
2023/05/30 02:48:34;;;;;;;1.70;1.70;;;21.80;66.40;;;;;;5102426;27;43431;-71
2023/05/30 02:51:02;;;;;;;1.77;1.77;;;21.80;66.60;;;;;;5102744;28;43825;-69
2023/05/30 02:53:32;;;;;;;1.53;1.53;;;21.70;66.70;;;;;;5103599;28;43378;-70
2023/05/30 02:56:00;;;;;;;1.80;1.80;;;21.70;66.70;;;;;;5103057;28;43813;-70
2023/05/30 02:58:56;;;;;;;1.33;1.33;;;21.70;66.70;;;;;;5102251;28;44808;-69
2023/05/30 03:01:47;;;;;;;1.60;1.60;;;21.70;66.80;;;;;;5095262;28;43452;-69
2023/05/30 03:04:16;;;;;;;1.60;1.60;;;21.60;66.90;;;;;;5102147;28;43386;-69
2023/05/30 03:06:49;;;;;;;1.50;1.50;;;21.70;66.90;;;;;;5108944;27;43824;-69
2023/05/30 03:09:21;;;;;;;1.50;1.50;;;21.70;66.80;;;;;;5103055;27;43386;-69
2023/05/30 03:11:50;;;;;;;1.60;1.60;;;21.90;66.50;;;;;;5102100;28;43474;-69
2023/05/30 03:14:18;;;;;;;1.50;1.50;;;21.90;66.10;;;;;;5102018;28;43645;-69
2023/05/30 03:16:46;;;;;;;1.80;1.80;;;22.00;65.90;;;;;;5102356;28;45673;-69
2023/05/30 03:19:17;;;;;;;1.50;1.50;;;22.00;66.00;;;;;;5102821;28;44741;-69
2023/05/30 03:21:46;;;;;;;1.50;1.50;;;21.90;66.90;;;;;;5102624;28;43468;-69
2023/05/30 03:24:15;;;;;;;1.70;1.70;;;21.90;66.30;;;;;;5101760;28;43476;-69
2023/05/30 03:26:46;;;;;;;1.50;1.50;;;21.80;66.50;;;;;;5062155;27;1098607;-70
2023/05/30 03:29:16;;;;;;;1.67;1.60;;;21.80;66.50;;;;;;5103224;28;43451;-69
2023/05/30 03:31:45;;;;;;;1.53;1.53;;;21.80;66.60;;;;;;5097327;28;43396;-69
2023/05/30 03:34:13;;;;;;;1.60;1.60;;;21.70;66.60;;;;;;5101405;28;43384;-70
2023/05/30 03:36:43;;;;;;;1.80;1.77;;;21.70;66.60;;;;;;5104004;27;45741;-69
2023/05/30 03:39:12;;;;;;;1.57;1.57;;;21.70;66.80;;;;;;5103748;28;45330;-69
2023/05/30 03:41:40;;;;;;;1.80;1.70;;;21.70;66.80;;;;;;5106436;27;43455;-69
2023/05/30 03:44:09;;;;;;;1.50;1.50;;;21.60;66.80;;;;;;5104895;27;43513;-73
2023/05/30 03:46:40;;;;;;;1.43;1.43;;;21.60;66.70;;;;;;5100720;28;44061;-70
2023/05/30 03:49:08;;;;;;;1.50;1.50;;;21.60;66.90;;;;;;5103303;27;44442;-70
2023/05/30 03:51:37;;;;;;;1.50;1.50;;;21.60;66.90;;;;;;5103265;28;43413;-69
2023/05/30 03:54:07;;;;;;;1.60;1.60;;;21.70;66.80;;;;;;5106004;27;43498;-69
2023/05/30 03:56:35;;;;;;;1.73;1.73;;;21.80;66.50;;;;;;5104346;27;44762;-71
2023/05/30 03:59:09;;;;;;;1.40;1.40;;;22.00;66.10;;;;;;5102762;28;44998;-69
2023/05/30 04:01:37;;;;;;;1.37;1.37;;;22.00;65.80;;;;;;5099331;27;43477;-70
2023/05/30 04:04:08;;;;;;;1.30;1.20;;;22.00;65.80;;;;;;5105055;27;43443;-70
2023/05/30 04:06:36;;;;;;;1.40;1.40;;;22.00;65.80;;;;;;5102699;27;46055;-70
2023/05/30 04:09:04;;;;;;;1.40;1.40;;;21.90;66.00;;;;;;5122157;27;44484;-70
2023/05/30 04:11:32;;;;;;;1.67;1.67;;;21.90;66.30;;;;;;5104722;27;43368;-69
2023/05/30 04:14:01;;;;;;;1.50;1.50;;;21.80;66.40;;;;;;5098861;27;43524;-70
2023/05/30 04:16:31;;;;;;;1.50;1.50;;;21.80;66.40;;;;;;5103654;27;43828;-73
2023/05/30 04:18:59;;;;;;;1.60;1.60;;;21.80;66.60;;;;;;5103675;28;45064;-69
2023/05/30 04:21:27;;;;;;;1.60;1.60;;;21.70;66.40;;;;;;5104017;28;43438;-70
2023/05/30 04:23:56;;;;;;;1.70;1.60;;;21.70;66.80;;;;;;5104479;28;43510;-69
2023/05/30 04:26:25;;;;;;;1.60;1.60;;;21.70;66.80;;;;;;5104008;27;43973;-69
2023/05/30 04:28:56;;;;;;;2.83;1.80;;;21.70;66.80;;;;;;5102962;28;44577;-69
2023/05/30 04:31:25;;;;;;;14.47;3.07;;;21.60;66.70;;;;;;5103611;28;43416;-70
2023/05/30 04:33:56;;;;;;;9.00;3.57;;;21.60;66.70;;;;;;5103714;28;43400;-70
2023/05/30 04:36:25;;;;;;;16.47;4.53;;;21.60;66.80;;;;;;5103091;28;46028;-69
2023/05/30 04:38:53;;;;;;;13.00;5.83;;;21.70;66.70;;;;;;5103934;27;44019;-69
2023/05/30 04:41:25;;;;;;;19.27;6.47;;;21.80;66.60;;;;;;5102930;28;43453;-69
2023/05/30 04:43:57;;;;;;;22.60;6.17;;;21.90;66.40;;;;;;5103138;27;43560;-69
2023/05/30 04:46:27;;;;;;;21.97;7.70;;;21.90;65.90;;;;;;5097356;27;43709;-73
2023/05/30 04:48:58;;;;;;;28.93;9.37;;;21.80;65.80;;;;;;5102629;27;43407;-69
2023/05/30 04:51:26;;;;;;;25.20;9.03;;;21.80;66.40;;;;;;5104233;27;43331;-69
2023/05/30 04:53:54;;;;;;;28.83;9.70;;;21.80;66.20;;;;;;5102713;27;43600;-69
2023/05/30 04:56:23;;;;;;;23.47;8.67;;;21.80;66.30;;;;;;5103280;28;46045;-71
2023/05/30 04:58:52;;;;;;;24.10;9.40;;;21.80;66.40;;;;;;5101346;28;44714;-71
2023/05/30 05:01:20;;;;;;;25.53;9.47;;;21.70;66.20;;;;;;5101454;27;43488;-69
2023/05/30 05:03:49;;;;;;;24.37;9.47;;;21.70;66.60;;;;;;5102398;28;43398;-70
2023/05/30 05:06:18;;;;;;;30.57;9.50;;;21.70;66.70;;;;;;5102086;27;45646;-69
2023/05/30 05:08:46;;;;;;;24.83;8.93;;;21.60;66.60;;;;;;5104060;27;43440;-69
2023/05/30 05:11:14;;;;;;;27.20;9.83;;;21.60;66.50;;;;;;5102976;28;43900;-70
2023/05/30 05:13:42;;;;;;;29.60;10.20;;;21.60;66.70;;;;;;5099032;27;43497;-69
2023/05/30 05:16:10;;;;;;;25.20;9.40;;;21.60;66.70;;;;;;5102951;28;43902;-70
2023/05/30 05:18:40;;;;;;;25.60;9.43;;;21.60;66.80;;;;;;5097012;27;43429;-69
2023/05/30 05:21:08;;;;;;;22.37;9.13;;;21.60;66.70;;;;;;5103467;27;43409;-70
2023/05/30 05:23:37;;;;;;;24.70;10.00;;;21.60;66.60;;;;;;5101677;27;43518;-69
2023/05/30 05:26:06;;;;;;;22.60;9.40;;;21.60;66.80;;;;;;5102868;28;43837;-69
2023/05/30 05:28:34;;;;;;;24.07;9.43;;;21.60;67.00;;;;;;5101024;28;43419;-69
2023/05/30 05:31:02;;;;;;;26.33;9.83;;;21.60;66.80;;;;;;5104084;27;43345;-69
2023/05/30 05:33:30;;;;;;;22.53;9.20;;;21.80;66.50;;;;;;5103123;27;43434;-70
2023/05/30 05:35:58;;;;;;;19.40;8.47;;;21.90;66.10;;;;;;5107296;27;43586;-69
2023/05/30 05:38:26;;;;;;;23.33;8.67;;;22.00;66.00;;;;;;5102523;27;43422;-69
2023/05/30 05:40:59;;;;;;;23.60;9.20;;;21.90;66.00;;;;;;5103165;28;43323;-70
2023/05/30 05:43:27;;;;;;;22.17;8.80;;;21.90;65.90;;;;;;5104866;27;43352;-70
2023/05/30 05:45:55;;;;;;;21.63;8.70;;;21.80;65.80;;;;;;5094199;28;43608;-69
2023/05/30 05:48:23;;;;;;;17.57;8.77;;;21.80;66.50;;;;;;5102737;27;43457;-69
2023/05/30 05:50:51;;;;;;;18.23;7.97;;;21.70;66.40;;;;;;5103041;27;43473;-69
2023/05/30 05:53:19;;;;;;;16.70;8.10;;;21.70;66.40;;;;;;5103044;27;43642;-69
2023/05/30 05:55:48;;;;;;;19.50;8.50;;;21.70;66.20;;;;;;5102575;27;43743;-70
2023/05/30 05:58:17;;;;;;;17.33;8.63;;;21.70;66.60;;;;;;5104408;27;44975;-69
2023/05/30 06:00:45;;;;;;;16.63;7.53;;;21.60;67.50;;;;;;5101477;28;43441;-69
2023/05/30 06:03:13;;;;;;;19.77;8.03;;;21.60;66.80;;;;;;5101256;27;43415;-69
2023/05/30 06:05:42;;;;;;;13.60;7.50;;;21.60;66.50;;;;;;5100461;28;45478;-69
2023/05/30 06:08:10;;;;;;;15.27;7.47;;;21.60;66.40;;;;;;5102153;27;44495;-69
2023/05/30 06:10:38;;;;;;;18.63;8.07;;;21.60;66.80;;;;;;5103586;27;43413;-69
2023/05/30 06:13:07;;;;;;;15.77;7.77;;;21.60;66.90;;;;;;5102694;28;43613;-69
2023/05/30 06:15:36;;;;;;;13.20;7.00;;;21.70;66.80;;;;;;5102100;28;45373;-69
2023/05/30 06:18:04;;;;;;;13.77;7.30;;;21.80;66.50;;;;;;5106617;27;43489;-69
2023/05/30 06:20:33;;;;;;;13.90;7.40;;;21.90;66.00;;;;;;5106502;27;43375;-69
2023/05/30 06:23:01;;;;;;;14.50;7.47;;;22.00;65.90;;;;;;5102857;28;43378;-69
2023/05/30 06:25:30;;;;;;;14.63;7.67;;;22.00;66.00;;;;;;5106734;28;43921;-70
2023/05/30 06:27:59;;;;;;;14.40;7.20;;;21.90;65.80;;;;;;5124892;27;44316;-69
2023/05/30 06:30:27;;;;;;;15.60;7.27;;;21.90;65.80;;;;;;5106575;27;43488;-69
2023/05/30 06:32:56;;;;;;;16.70;7.80;;;21.80;66.40;;;;;;5106147;28;43599;-69
2023/05/30 06:35:24;;;;;;;13.57;6.27;;;21.80;66.50;;;;;;5106539;27;43783;-69
2023/05/30 06:37:52;;;;;;;13.10;7.40;;;21.80;66.30;;;;;;5106132;27;43338;-70
2023/05/30 06:40:20;;;;;;;14.63;7.03;;;21.70;66.00;;;;;;5106869;27;43446;-69
2023/05/30 06:42:48;;;;;;;11.00;5.93;;;21.70;66.40;;;;;;5107027;27;43422;-69
2023/05/30 06:45:16;;;;;;;11.80;6.50;;;21.60;66.70;;;;;;5101311;28;43660;-69
2023/05/30 06:47:47;;;;;;;10.97;6.70;;;21.60;66.70;;;;;;5103762;28;43820;-69
2023/05/30 06:50:17;;;;;;;10.03;6.40;;;21.60;66.40;;;;;;5101089;28;43335;-68
2023/05/30 06:52:45;;;;;;;12.90;5.97;;;21.60;66.30;;;;;;5106733;27;43474;-69
2023/05/30 06:55:15;;;;;;;9.63;5.90;;;21.60;66.90;;;;;;5089144;28;46104;-68
2023/05/30 06:57:43;;;;;;;13.07;6.03;;;21.60;66.80;;;;;;5105952;28;43502;-69
2023/05/30 07:00:14;;;;;;;11.00;5.97;;;21.70;66.70;;;;;;5106338;28;43350;-68
2023/05/30 07:02:42;;;;;;;10.07;6.00;;;21.70;66.60;;;;;;5107018;28;43289;-69
2023/05/30 07:05:11;;;;;;;10.43;6.03;;;21.80;66.60;;;;;;5105811;27;44110;-68
2023/05/30 07:07:42;;;;;;;12.00;5.90;;;21.80;66.40;;;;;;5105493;27;43910;-69
2023/05/30 07:10:11;;;;;;;7.67;5.47;;;21.70;66.40;;;;;;5103688;28;43400;-70
2023/05/30 07:12:39;;;;;;;10.43;5.83;;;21.70;66.60;;;;;;5103469;28;43430;-69
2023/05/30 07:15:08;;;;;;;9.87;5.50;;;21.70;67.30;;;;;;5104269;28;45723;-68
2023/05/30 07:17:36;;;;;;;8.00;5.43;;;21.70;66.20;;;;;;5101945;27;44441;-70
2023/05/30 07:20:06;;;;;;;8.30;5.23;;;21.70;66.10;;;;;;5105358;27;43410;-69
2023/05/30 07:22:34;;;;;;;8.03;5.27;;;21.60;66.60;;;;;;5103587;27;43636;-69
2023/05/30 07:25:04;;;;;;;8.40;5.53;;;21.60;66.70;;;;;;5103069;27;45392;-68
2023/05/30 07:27:32;;;;;;;9.20;5.30;;;21.60;66.70;;;;;;5101952;27;44453;-70
2023/05/30 07:30:00;;;;;;;9.87;5.23;;;21.60;66.40;;;;;;5101454;27;43386;-72
2023/05/30 07:32:29;;;;;;;6.27;5.03;;;21.60;66.50;;;;;;5105423;27;43461;-68
2023/05/30 07:34:57;;;;;;;6.30;5.20;;;21.50;66.80;;;;;;5105128;27;43849;-69
2023/05/30 07:37:25;;;;;;;6.77;4.90;;;21.60;66.90;;;;;;5105317;28;43418;-68
2023/05/30 07:39:53;;;;;;;7.10;5.03;;;21.70;66.60;;;;;;5104980;28;43473;-69
2023/05/30 07:42:22;;;;;;;7.43;4.73;;;21.80;66.20;;;;;;5103574;28;43350;-68
2023/05/30 07:44:50;;;;;;;6.50;4.80;;;21.90;66.10;;;;;;5104507;28;43730;-69
2023/05/30 07:47:18;;;;;;;5.10;4.27;;;21.90;66.10;;;;;;5103589;28;44704;-69
2023/05/30 07:49:46;;;;;;;6.97;4.90;;;21.90;66.10;;;;;;5103616;28;43566;-69
2023/05/30 07:52:15;;;;;;;6.83;5.07;;;21.80;65.90;;;;;;5104819;27;44557;-69
2023/05/30 07:54:43;;;;;;;6.33;5.00;;;21.80;66.40;;;;;;5099295;27;43702;-69
2023/05/30 07:57:12;;;;;;;5.33;4.13;;;21.70;66.50;;;;;;5105123;27;43400;-69
2023/05/30 07:59:42;;;;;;;5.83;4.60;;;21.70;66.60;;;;;;5103936;27;43416;-68
2023/05/30 08:02:10;;;;;;;5.50;4.20;;;21.70;66.40;;;;;;5104468;28;43512;-69
2023/05/30 08:04:38;;;;;;;5.50;4.70;;;21.60;66.20;;;;;;5104023;27;43583;-69
2023/05/30 08:07:07;;;;;;;5.53;4.50;;;21.60;66.70;;;;;;5102206;28;44675;-69
2023/05/30 08:09:36;;;;;;;5.40;4.23;;;21.60;66.80;;;;;;5104408;28;43418;-69
2023/05/30 08:12:05;;;;;;;4.97;4.20;;;21.50;66.60;;;;;;5104470;27;43502;-69
2023/05/30 08:14:33;;;;;;;4.50;4.10;;;21.50;66.40;;;;;;5103553;28;43601;-68
2023/05/30 08:17:02;;;;;;;5.03;4.00;;;21.50;66.50;;;;;;5103975;27;43399;-68
2023/05/30 08:19:31;;;;;;;4.67;4.10;;;21.50;66.90;;;;;;5102188;28;43371;-72
2023/05/30 08:21:59;;;;;;;5.83;4.77;;;21.50;66.90;;;;;;5103589;27;43405;-73
2023/05/30 08:24:28;;;;;;;4.20;3.90;;;21.70;66.80;;;;;;5103387;27;46185;-69
2023/05/30 08:26:56;;;;;;;4.20;3.80;;;21.70;66.60;;;;;;5104030;27;43530;-69
2023/05/30 08:29:24;;;;;;;4.70;4.03;;;21.70;66.50;;;;;;5103727;27;43412;-68
2023/05/30 08:31:52;;;;;;;5.47;3.80;;;21.70;66.60;;;;;;5102844;28;43501;-69
2023/05/30 08:34:24;;;;;;;4.53;3.90;;;21.70;66.70;;;;;;5099126;28;43600;-70
2023/05/30 08:36:53;;;;;;;4.47;4.03;;;21.70;66.70;;;;;;5103322;28;43497;-69
2023/05/30 08:39:22;;;;;;;3.73;3.33;;;21.70;66.60;;;;;;5103159;27;43458;-69
2023/05/30 08:41:50;;;;;;;4.20;3.80;;;21.60;66.20;;;;;;5104690;27;43817;-69
2023/05/30 08:44:18;;;;;;;4.07;3.70;;;21.60;66.70;;;;;;5103923;27;43843;-68
2023/05/30 08:46:46;;;;;;;4.07;3.47;;;21.60;66.80;;;;;;5104187;28;43481;-68
2023/05/30 08:49:18;;;;;;;3.67;3.37;;;21.50;66.80;;;;;;5101660;27;43470;-70
2023/05/30 08:51:48;;;;;;;4.17;3.60;;;21.60;66.60;;;;;;5104409;27;43430;-69
2023/05/30 08:54:18;;;;;;;3.60;3.40;;;21.50;66.40;;;;;;5102911;27;43768;-68
2023/05/30 08:56:48;;;;;;;3.47;3.23;;;21.50;66.90;;;;;;5103638;27;43443;-68
2023/05/30 08:59:17;;;;;;;3.57;3.27;;;21.50;67.00;;;;;;5099875;28;43450;-69
2023/05/30 09:01:45;;;;;;;3.53;3.23;;;21.60;66.90;;;;;;5103779;28;43395;-68
2023/05/30 09:04:13;;;;;;;3.30;3.10;;;21.70;66.50;;;;;;5098004;28;45958;-69
2023/05/30 09:06:41;;;;;;;3.93;3.60;;;21.80;66.30;;;;;;5103726;27;43457;-68
2023/05/30 09:09:13;;;;;;;3.60;3.40;;;21.90;66.30;;;;;;5103457;28;43419;-68
2023/05/30 09:11:41;;;;;;;3.43;3.20;;;21.90;66.20;;;;;;5098981;27;43511;-69
2023/05/30 09:14:09;;;;;;;3.67;3.37;;;21.80;65.90;;;;;;5103676;27;43616;-69
2023/05/30 09:16:37;;;;;;;3.27;3.07;;;21.70;66.30;;;;;;5101427;28;44762;-69
2023/05/30 09:19:06;;;;;;;3.43;3.23;;;21.70;66.60;;;;;;5103180;27;43424;-69
2023/05/30 09:21:34;;;;;;;3.30;3.07;;;21.70;66.60;;;;;;5103911;27;43422;-68
2023/05/30 09:24:05;;;;;;;3.30;3.10;;;21.60;66.30;;;;;;5104245;27;43606;-69
2023/05/30 09:26:34;;;;;;;3.60;3.40;;;21.60;66.90;;;;;;5103317;27;43981;-68
2023/05/30 09:29:08;;;;;;;3.53;3.23;;;21.50;66.60;;;;;;5103831;28;44096;-68
2023/05/30 09:31:37;;;;;;;3.13;2.93;;;21.50;66.60;;;;;;5104046;28;43398;-68
2023/05/30 09:34:06;;;;;;;3.23;3.03;;;21.50;66.40;;;;;;5103086;27;43598;-69
2023/05/30 09:36:35;;;;;;;3.23;2.97;;;21.50;65.60;;;;;;5102310;28;43376;-68
2023/05/30 09:39:05;;;;;;;3.70;3.40;;;21.50;65.30;;;;;;5101476;27;43408;-68
2023/05/30 09:41:35;;;;;;;3.40;3.00;;;21.50;66.50;;;;;;5103421;27;43433;-68
2023/05/30 09:44:05;;;;;;;3.07;2.87;;;21.50;66.50;;;;;;5101806;27;43664;-68
2023/05/30 09:46:35;;;;;;;3.60;3.30;;;21.60;66.20;;;;;;5102485;27;43382;-68
2023/05/30 09:49:11;;;;;;;3.33;3.13;;;21.70;65.80;;;;;;5094376;28;43444;-68
2023/05/30 09:51:39;;;;;;;3.40;3.20;;;21.80;65.60;;;;;;5097237;28;43374;-68
2023/05/30 09:54:09;;;;;;;3.50;3.20;;;21.80;65.00;;;;;;5100935;27;43566;-70
2023/05/30 09:56:39;;;;;;;3.10;2.90;;;21.80;64.50;;;;;;5106174;27;43461;-68
2023/05/30 09:59:08;;;;;;;3.50;3.30;;;21.70;64.20;;;;;;5105229;28;43469;-68
2023/05/30 10:01:39;;;;;;;3.03;2.83;;;21.60;65.00;;;;;;5105948;27;43357;-68
2023/05/30 10:04:12;;;;;;;2.77;2.57;;;21.60;65.20;;;;;;5104957;27;43729;-69
2023/05/30 10:06:41;;;;;;;2.50;2.40;;;21.50;64.40;;;;;;5105759;28;43455;-69
2023/05/30 10:09:09;;;;;;;2.90;2.70;;;21.60;64.30;;;;;;5104579;28;43363;-69
2023/05/30 10:11:41;;;;;;;3.07;2.87;;;21.50;64.30;;;;;;5106314;27;43464;-68
2023/05/30 10:14:09;;;;;;;2.53;2.43;;;21.50;64.90;;;;;;5105558;27;43606;-70
2023/05/30 10:16:40;;;;;;;3.57;2.87;;;21.50;64.40;;;;;;5106605;27;43902;-69
2023/05/30 10:19:12;;;;;;;2.70;2.60;;;21.50;64.80;;;;;;5104526;28;43327;-69
2023/05/30 10:21:40;;;;;;;2.80;2.60;;;21.50;63.60;;;;;;5106191;28;43407;-69
2023/05/30 10:24:09;;;;;;;2.77;2.60;;;21.40;64.10;;;;;;5100314;28;44709;-70
2023/05/30 10:26:37;;;;;;;2.47;2.37;;;21.40;65.40;;;;;;5103643;28;44993;-69
2023/05/30 10:29:07;;;;;;;2.60;2.37;;;21.50;65.50;;;;;;5102939;28;43434;-69
2023/05/30 10:31:35;;;;;;;2.87;2.67;;;21.50;65.50;;;;;;5106561;28;43397;-71
2023/05/30 10:34:04;;;;;;;2.80;2.60;;;21.70;64.90;;;;;;5102263;28;43801;-69
2023/05/30 10:36:32;;;;;;;2.43;2.33;;;21.80;65.10;;;;;;5104886;28;43335;-69
2023/05/30 10:39:06;;;;;;;2.87;2.67;;;21.80;65.00;;;;;;5098153;28;43423;-73
2023/05/30 10:41:38;;;;;;;2.60;2.50;;;21.80;63.20;;;;;;5096457;27;43517;-71
2023/05/30 10:44:38;;;;;;;3.00;2.80;;;21.70;63.80;;;;;;5104280;27;43704;-68
2023/05/30 10:47:24;;;;;;;2.47;2.37;;;21.60;64.10;;;;;;5105073;27;43368;-68
2023/05/30 10:49:52;;;;;;;2.60;2.50;;;21.60;64.60;;;;;;5095731;28;43653;-69
2023/05/30 10:52:20;;;;;;;2.20;2.10;;;21.50;63.60;;;;;;5107864;27;43355;-69
2023/05/30 10:54:50;;;;;;;2.67;2.47;;;21.50;63.70;;;;;;5104926;27;43852;-68
2023/05/30 10:57:24;;;;;;;2.60;2.40;;;21.50;63.60;;;;;;5106121;27;43414;-69
2023/05/30 10:59:57;;;;;;;2.70;2.50;;;21.50;64.80;;;;;;5103893;28;43454;-68
2023/05/30 11:02:34;;;;;;;4.13;2.33;;;21.50;64.30;;;;;;5089920;28;43432;-68
2023/05/30 11:05:07;;;;;;;2.30;2.20;;;21.50;63.30;;;;;;5105182;28;43610;-68
2023/05/30 11:07:37;;;;;;;2.90;2.73;;;21.40;63.70;;;;;;5099771;27;43503;-70
2023/05/30 11:10:07;;;;;;;3.53;2.60;;;21.40;64.50;;;;;;5104079;28;43446;-69
2023/05/30 11:12:41;;;;;;;3.03;2.83;;;21.40;65.10;;;;;;5109323;27;43455;-70
2023/05/30 11:15:14;;;;;;;2.60;2.50;;;21.50;65.00;;;;;;5103838;27;43813;-71
2023/05/30 11:17:42;;;;;;;2.33;2.23;;;21.60;64.30;;;;;;5100097;28;43566;-70
2023/05/30 11:20:16;;;;;;;2.63;2.43;;;21.70;64.50;;;;;;5101186;27;43376;-69
2023/05/30 11:23:19;;;;;;;3.03;2.30;;;21.80;64.20;;;;;;5103762;28;43371;-69
2023/05/30 11:25:47;;;;;;;2.40;2.30;;;21.70;62.90;;;;;;5096460;27;45643;-69
2023/05/30 11:28:19;;;;;;;2.80;2.60;;;21.70;62.40;;;;;;5102684;28;43818;-71
2023/05/30 11:30:49;;;;;;;2.87;2.70;;;21.60;62.30;;;;;;5104551;28;43759;-69
2023/05/30 11:33:17;;;;;;;2.40;2.30;;;21.60;64.60;;;;;;5114044;27;43418;-69
2023/05/30 11:35:47;;;;;;;2.70;2.50;;;21.50;64.20;;;;;;5103311;27;43817;-71
2023/05/30 11:38:19;;;;;;;2.30;2.20;;;21.50;63.90;;;;;;5093225;28;43355;-69
2023/05/30 11:40:47;;;;;;;2.53;2.43;;;21.50;63.10;;;;;;5100274;27;43395;-69
2023/05/30 11:43:16;;;;;;;2.53;2.37;;;21.50;64.10;;;;;;5102591;28;43391;-69
2023/05/30 11:45:45;;;;;;;2.40;2.30;;;21.50;65.10;;;;;;5103341;27;45810;-69
2023/05/30 11:48:14;;;;;;;2.60;2.50;;;21.50;64.70;;;;;;5104815;27;43389;-69
2023/05/30 11:50:43;;;;;;;2.23;2.13;;;21.60;64.80;;;;;;5104045;27;43745;-69
2023/05/30 11:53:13;;;;;;;2.60;2.20;;;21.60;63.90;;;;;;5102479;28;43644;-70
2023/05/30 11:55:44;;;;;;;2.20;2.20;;;21.60;63.70;;;;;;5096557;27;43594;-71
2023/05/30 11:58:13;;;;;;;2.23;2.17;;;21.50;64.60;;;;;;5103019;28;44713;-69
2023/05/30 12:00:42;;;;;;;2.20;2.20;;;21.60;64.00;;;;;;5100211;28;43451;-69
2023/05/30 12:03:12;;;;;;;2.33;2.23;;;21.50;63.00;;;;;;5098814;28;43459;-70
2023/05/30 12:05:41;;;;;;;2.50;2.30;;;21.50;63.30;;;;;;5099912;28;46221;-69
2023/05/30 12:08:09;;;;;;;2.70;2.53;;;21.50;63.70;;;;;;5098029;27;43492;-70
2023/05/30 12:10:37;;;;;;;2.70;2.50;;;21.50;64.90;;;;;;5102656;28;43449;-69
2023/05/30 12:13:07;;;;;;;2.40;2.30;;;21.50;64.70;;;;;;5094548;28;43482;-69
2023/05/30 12:15:36;;;;;;;2.50;2.40;;;21.50;64.50;;;;;;5101420;27;45383;-69
2023/05/30 12:18:08;;;;;;;7.23;2.83;;;21.50;64.20;;;;;;5098549;27;43391;-69
2023/05/30 12:20:45;;;;;;;2.87;2.60;;;21.50;65.00;;;;;;5092011;28;43558;-69
2023/05/30 12:23:13;;;;;;;2.90;2.70;;;21.50;65.30;;;;;;5100246;28;44665;-69
2023/05/30 12:25:52;;;;;;;3.23;2.57;;;21.50;65.30;;;;;;5101002;27;43846;-69
2023/05/30 12:28:21;;;;;;;3.10;2.80;;;21.60;65.10;;;;;;5088154;28;43492;-69
2023/05/30 12:30:49;;;;;;;3.37;2.80;;;21.80;65.00;;;;;;5102830;28;43576;-69
2023/05/30 12:33:18;;;;;;;3.63;3.33;;;21.80;64.80;;;;;;5103666;27;43409;-69
2023/05/30 12:35:47;;;;;;;4.47;4.00;;;21.80;64.60;;;;;;5103028;28;43787;-69
2023/05/30 12:38:17;;;;;;;23.20;10.80;;;21.70;63.40;;;;;;5102002;27;44521;-69
2023/05/30 12:40:46;;;;;;;18.70;11.40;;;21.70;64.10;;;;;;5103640;27;43462;-70
2023/05/30 12:43:15;;;;;;;15.33;12.10;;;21.60;64.70;;;;;;5101417;28;43644;-70
2023/05/30 12:45:44;;;;;;;15.00;11.27;;;21.60;64.50;;;;;;5102924;28;43777;-69
2023/05/30 12:48:12;;;;;;;19.87;13.60;;;21.60;64.60;;;;;;5099135;27;43457;-69
2023/05/30 12:50:41;;;;;;;20.67;13.67;;;21.60;64.50;;;;;;5100095;28;43480;-69
2023/05/30 12:53:10;;;;;;;21.27;12.47;;;21.50;65.20;;;;;;5102636;28;43564;-70
2023/05/30 12:55:38;;;;;;;15.87;12.13;;;21.50;65.30;;;;;;5101704;28;46099;-71